Time;durP1;ratioP1;P1;durP2;ratioP2;P2;SDS_P1;SDS_P2;PMS_P1;PMS_P2;Temp;Humidity;BMP_temperature;BMP_pressure;BME280_temperature;BME280_humidity;BME280_pressure;Samples;Min_cycle;Max_cycle;Signal;HPM_P1;HPM_P2
2022/12/23 00:02:22;;;;;;;17.95;10.27;;;;;;;1.45;nan;98763.34;5024612;28;20059;-75
2022/12/23 00:04:47;;;;;;;14.63;8.82;;;;;;;1.51;nan;98755.16;5021231;28;20503;-75
2022/12/23 00:07:11;;;;;;;16.42;9.40;;;;;;;1.40;nan;98747.78;5039794;28;20044;-77
2022/12/23 00:09:36;;;;;;;15.88;10.27;;;;;;;1.36;nan;98737.50;5039218;28;20064;-76
2022/12/23 00:17:28;;;;;;;20.20;9.63;;;;;;;1.37;nan;98745.31;5015707;28;20040;-75
2022/12/23 00:19:52;;;;;;;18.15;10.02;;;;;;;1.29;nan;98747.47;5040620;28;20093;-74
2022/12/23 00:22:17;;;;;;;19.52;10.85;;;;;;;1.19;nan;98759.34;5014484;28;20083;-73
2022/12/23 00:24:42;;;;;;;17.42;9.27;;;;;;;1.21;nan;98748.75;5036629;28;20028;-75
2022/12/23 00:27:06;;;;;;;17.65;9.30;;;;;;;1.26;nan;98758.09;5038080;28;20625;-75
2022/12/23 00:29:31;;;;;;;21.30;11.32;;;;;;;1.27;nan;98740.59;5038561;28;20098;-75
2022/12/23 00:31:55;;;;;;;13.73;7.72;;;;;;;1.29;nan;98731.72;5007949;28;20071;-75
2022/12/23 00:34:20;;;;;;;18.02;9.27;;;;;;;1.27;nan;98730.94;5024111;28;20052;-74
2022/12/23 00:36:44;;;;;;;14.95;7.50;;;;;;;1.48;nan;98728.19;5032341;28;20044;-74
2022/12/23 00:44:37;;;;;;;10.35;6.20;;;;;;;1.42;nan;98722.31;5041250;28;20041;-76
2022/12/23 00:47:02;;;;;;;12.27;6.18;;;;;;;1.22;nan;98713.72;5042084;28;20411;-77
2022/12/23 00:49:41;;;;;;;17.05;8.60;;;;;;;1.37;nan;98705.06;5016358;28;20044;-73
2022/12/23 00:52:09;;;;;;;15.75;8.70;;;;;;;1.33;nan;98700.91;5043207;28;20044;-72
2022/12/23 00:54:34;;;;;;;16.67;8.63;;;;;;;1.15;nan;98712.28;4990289;28;20767;-75
2022/12/23 00:56:59;;;;;;;17.23;8.50;;;;;;;0.96;nan;98713.19;5019281;28;20423;-74
2022/12/23 00:59:24;;;;;;;19.40;10.05;;;;;;;1.05;nan;98704.00;5037754;28;20052;-73
2022/12/23 01:07:15;;;;;;;14.05;8.55;;;;;;;0.90;nan;98694.28;5039377;28;20044;-73
2022/12/23 01:09:40;;;;;;;30.77;11.07;;;;;;;0.83;nan;98698.94;5040890;28;20047;-74
2022/12/23 01:12:05;;;;;;;18.30;8.50;;;;;;;0.84;nan;98691.91;5037856;28;20079;-73
2022/12/23 01:14:30;;;;;;;16.02;9.55;;;;;;;0.99;nan;98693.81;5000052;28;20041;-73
2022/12/23 01:16:54;;;;;;;19.70;9.93;;;;;;;0.82;nan;98701.63;5024066;28;20039;-74
2022/12/23 01:19:19;;;;;;;24.02;12.45;;;;;;;0.78;nan;98710.59;5036128;28;20052;-75
2022/12/23 01:21:44;;;;;;;12.50;7.72;;;;;;;0.88;nan;98707.47;4999267;28;20414;-74
2022/12/23 01:24:09;;;;;;;22.20;10.43;;;;;;;0.93;nan;98715.09;5000227;28;20071;-75
2022/12/23 01:26:33;;;;;;;14.00;8.63;;;;;;;0.92;nan;98709.00;5015946;28;20045;-72
2022/12/23 01:28:58;;;;;;;19.13;10.27;;;;;;;0.85;nan;98712.84;4961476;28;20045;-74
2022/12/23 01:31:25;;;;;;;15.18;9.85;;;;;;;0.96;nan;98715.81;5008622;28;20037;-69
2022/12/23 01:33:50;;;;;;;21.92;10.40;;;;;;;0.92;nan;98714.25;5015378;28;20056;-73
2022/12/23 01:36:15;;;;;;;19.92;11.40;;;;;;;0.98;nan;98711.34;4980232;28;20152;-71
2022/12/23 01:38:40;;;;;;;16.98;9.70;;;;;;;1.07;nan;98716.16;5016175;28;20135;-75
2022/12/23 01:41:04;;;;;;;13.88;9.13;;;;;;;1.03;nan;98714.59;4997877;28;20178;-77
2022/12/23 01:43:50;;;;;;;17.08;9.52;;;;;;;1.07;nan;98718.78;4997440;28;20045;-76
2022/12/23 01:46:15;;;;;;;18.55;10.10;;;;;;;1.11;nan;98726.50;5015928;28;20040;-74
2022/12/23 01:48:42;;;;;;;15.32;9.15;;;;;;;1.14;nan;98707.97;4984908;28;20507;-72
2022/12/23 01:51:15;;;;;;;17.10;10.85;;;;;;;1.16;nan;98701.72;5017452;28;20060;-77
2022/12/23 01:53:44;;;;;;;19.40;10.68;;;;;;;1.11;nan;98703.72;5017627;28;20055;-70
2022/12/23 01:56:25;;;;;;;20.00;12.02;;;;;;;1.24;nan;98699.56;5015884;28;20098;-73
2022/12/23 01:58:58;;;;;;;13.75;7.50;;;;;;;1.36;nan;98688.47;5015709;28;20410;-74
2022/12/23 02:04:12;;;;;;;19.15;9.35;;;;;;;1.20;nan;98686.69;4996839;28;20710;-74
2022/12/23 02:09:31;;;;;;;17.15;9.63;;;;;;;1.19;nan;98683.22;4961977;28;20040;-76
2022/12/23 02:12:43;;;;;;;20.40;10.65;;;;;;;1.21;nan;98675.25;4994039;28;20065;-75
2022/12/23 02:18:30;;;;;;;19.95;9.85;;;;;;;0.90;nan;98674.13;4904975;28;20061;-77
2022/12/23 02:21:20;;;;;;;22.35;12.20;;;;;;;0.91;nan;98670.56;4875228;29;20095;-71
2022/12/23 02:24:00;;;;;;;28.55;13.57;;;;;;;0.94;nan;98665.16;4874647;29;20054;-73
2022/12/23 02:27:07;;;;;;;28.00;12.00;;;;;;;1.12;nan;98670.47;4861482;29;20052;-71
2022/12/23 02:29:59;;;;;;;23.52;13.80;;;;;;;0.97;nan;98667.66;4861258;29;20051;-70
2022/12/23 02:32:40;;;;;;;25.63;13.20;;;;;;;1.12;nan;98673.09;4874087;29;20044;-70
2022/12/23 02:35:40;;;;;;;21.25;12.68;;;;;;;1.16;nan;98675.47;4877066;29;20463;-71
2022/12/23 02:38:23;;;;;;;23.42;12.57;;;;;;;1.16;nan;98690.38;4844238;29;20052;-72
2022/12/23 02:41:06;;;;;;;23.63;12.57;;;;;;;1.19;nan;98677.09;4876695;29;20104;-71
2022/12/23 02:43:47;;;;;;;29.23;14.20;;;;;;;1.18;nan;98673.63;4877663;29;20063;-69
2022/12/23 02:46:24;;;;;;;27.27;12.68;;;;;;;1.24;nan;98678.56;4878472;29;20044;-73
2022/12/23 02:48:48;;;;;;;24.90;12.40;;;;;;;1.24;nan;98673.31;4877749;29;20388;-74
2022/12/23 02:51:15;;;;;;;28.15;15.20;;;;;;;1.14;nan;98668.59;4900521;28;20426;-69
2022/12/23 02:53:46;;;;;;;25.73;14.00;;;;;;;1.31;nan;98669.47;4934735;28;20050;-70
2022/12/23 02:56:13;;;;;;;20.73;12.57;;;;;;;1.29;nan;98680.97;4949073;28;20492;-70
2022/12/23 02:58:52;;;;;;;22.70;12.27;;;;;;;1.26;nan;98668.84;4993842;28;20037;-70
2022/12/23 03:01:18;;;;;;;24.92;12.80;;;;;;;1.26;nan;98691.63;4998222;28;20033;-73
2022/12/23 03:03:45;;;;;;;25.98;14.05;;;;;;;1.30;nan;98678.28;5013632;28;20037;-72
2022/12/23 03:06:21;;;;;;;26.17;13.02;;;;;;;1.41;nan;98686.47;5014867;28;20115;-72
2022/12/23 03:08:48;;;;;;;23.88;13.05;;;;;;;1.34;nan;98671.97;5014903;28;20563;-73
2022/12/23 03:11:15;;;;;;;23.67;13.25;;;;;;;1.32;nan;98675.59;5014573;28;20045;-77
2022/12/23 03:14:19;;;;;;;24.25;13.20;;;;;;;1.37;nan;98689.31;4999304;28;20037;-77
2022/12/23 03:17:12;;;;;;;21.63;12.90;;;;;;;1.31;nan;98679.13;4983040;28;20106;-79
2022/12/23 03:19:40;;;;;;;22.75;12.60;;;;;;;1.34;nan;98679.84;4988325;28;20531;-73
2022/12/23 03:22:22;;;;;;;23.63;12.88;;;;;;;1.37;nan;98679.66;5021556;28;20056;-74
2022/12/23 03:25:05;;;;;;;19.58;12.02;;;;;;;1.41;nan;98680.38;5034027;28;20040;-73
2022/12/23 03:27:40;;;;;;;19.38;11.90;;;;;;;1.44;nan;98685.47;5013489;28;20110;-73
2022/12/23 03:30:11;;;;;;;22.25;11.45;;;;;;;1.39;nan;98683.06;5026311;28;20212;-74
2022/12/23 03:32:45;;;;;;;22.02;12.68;;;;;;;1.34;nan;98682.47;5016075;28;20055;-71
2022/12/23 03:35:14;;;;;;;20.45;12.02;;;;;;;1.28;nan;98684.53;5033894;28;20051;-65
2022/12/23 03:37:45;;;;;;;18.58;10.75;;;;;;;1.42;nan;98684.69;5016676;28;20072;-72
2022/12/23 03:40:18;;;;;;;21.95;12.60;;;;;;;1.33;nan;98691.25;5013460;28;20131;-73
2022/12/23 03:42:46;;;;;;;26.02;12.82;;;;;;;1.35;nan;98696.44;4982461;28;20213;-71
2022/12/23 03:45:16;;;;;;;23.05;13.95;;;;;;;1.28;nan;98695.03;5034089;28;20530;-72
2022/12/23 03:47:54;;;;;;;23.10;12.55;;;;;;;1.31;nan;98690.47;5016231;28;20550;-74
2022/12/23 03:50:21;;;;;;;29.15;14.10;;;;;;;1.25;nan;98690.75;5032530;28;20043;-72
2022/12/23 03:52:59;;;;;;;23.35;13.05;;;;;;;1.22;nan;98695.34;5037319;28;20534;-74
2022/12/23 03:55:30;;;;;;;21.00;11.93;;;;;;;1.28;nan;98693.25;5037429;28;20040;-73
2022/12/23 03:58:03;;;;;;;21.60;12.75;;;;;;;1.32;nan;98681.69;5037272;28;20064;-75
2022/12/23 04:00:34;;;;;;;21.83;12.73;;;;;;;1.38;nan;98691.88;5037662;28;20509;-74
2022/12/23 04:03:09;;;;;;;34.15;15.95;;;;;;;1.37;nan;98681.44;5037906;28;20083;-73
2022/12/23 04:05:38;;;;;;;25.73;13.60;;;;;;;1.32;nan;98680.84;5037981;28;20078;-73
2022/12/23 04:08:17;;;;;;;26.40;13.63;;;;;;;1.32;nan;98678.22;5037407;28;20457;-74
2022/12/23 04:10:42;;;;;;;28.98;15.40;;;;;;;1.30;nan;98677.44;5036447;28;20045;-74
2022/12/23 04:13:07;;;;;;;23.75;14.25;;;;;;;1.27;nan;98674.94;5037403;28;20127;-75
2022/12/23 04:15:32;;;;;;;25.67;13.68;;;;;;;1.29;nan;98680.97;5032258;28;20037;-75
2022/12/23 04:17:57;;;;;;;30.77;15.57;;;;;;;1.18;nan;98676.25;5019366;28;20091;-74
2022/12/23 04:20:23;;;;;;;28.52;14.15;;;;;;;1.29;nan;98670.47;5014554;28;20060;-74
2022/12/23 04:22:47;;;;;;;42.85;20.92;;;;;;;1.18;nan;98676.25;5037324;28;20064;-72
2022/12/23 04:25:14;;;;;;;35.17;18.20;;;;;;;1.21;nan;98667.38;5037658;28;20096;-73
2022/12/23 04:27:38;;;;;;;29.75;14.45;;;;;;;1.31;nan;98671.25;5036122;28;20044;-75
2022/12/23 04:30:05;;;;;;;17.92;8.98;;;;;;;1.38;nan;98665.59;5037031;28;20047;-74
2022/12/23 04:32:29;;;;;;;27.13;14.35;;;;;;;1.29;nan;98671.31;5008016;28;20065;-74
2022/12/23 04:34:54;;;;;;;24.73;13.52;;;;;;;1.34;nan;98671.97;5035353;28;20028;-74
2022/12/23 04:37:19;;;;;;;23.58;13.07;;;;;;;1.32;nan;98675.59;5038118;28;20040;-74
2022/12/23 04:39:43;;;;;;;22.50;12.85;;;;;;;1.32;nan;98678.22;5002944;28;20089;-74
2022/12/23 04:42:08;;;;;;;27.40;14.40;;;;;;;1.28;nan;98674.03;5020100;28;20048;-74
2022/12/23 04:44:32;;;;;;;23.25;13.55;;;;;;;1.25;nan;98668.91;5023907;28;20181;-73
2022/12/23 04:46:57;;;;;;;22.20;12.20;;;;;;;1.31;nan;98672.09;5036534;28;20048;-74
2022/12/23 04:49:22;;;;;;;29.30;15.65;;;;;;;1.21;nan;98667.38;5015863;28;20041;-74
2022/12/23 04:51:46;;;;;;;22.05;11.90;;;;;;;1.30;nan;98667.78;5022265;28;20033;-74
2022/12/23 04:54:11;;;;;;;22.42;12.50;;;;;;;1.20;nan;98666.53;5022497;28;20040;-73
2022/12/23 04:56:36;;;;;;;20.90;11.68;;;;;;;1.30;nan;98662.53;5038103;28;20040;-73
2022/12/23 04:59:01;;;;;;;26.33;11.85;;;;;;;1.23;nan;98658.50;5047550;28;20036;-73
2022/12/23 05:01:25;;;;;;;23.85;13.15;;;;;;;1.32;nan;98659.81;5044021;28;20411;-72
2022/12/23 05:03:50;;;;;;;22.85;12.95;;;;;;;1.31;nan;98664.22;5006963;28;20045;-73
2022/12/23 05:06:15;;;;;;;20.92;11.63;;;;;;;1.32;nan;98649.31;5037341;28;20082;-70
2022/12/23 05:08:39;;;;;;;25.05;13.27;;;;;;;1.29;nan;98654.72;5036833;28;20044;-71
2022/12/23 05:11:04;;;;;;;24.95;13.13;;;;;;;1.24;nan;98657.56;5000520;28;20040;-73
2022/12/23 05:13:28;;;;;;;24.73;13.68;;;;;;;1.22;nan;98653.34;5009769;28;20116;-72
2022/12/23 05:15:54;;;;;;;14.65;8.70;;;;;;;1.32;nan;98659.81;5049499;28;20070;-75
2022/12/23 05:18:20;;;;;;;22.88;12.73;;;;;;;1.25;nan;98655.78;5038523;28;20046;-74
2022/12/23 05:20:45;;;;;;;25.27;13.68;;;;;;;1.19;nan;98653.47;5009254;28;20060;-74
2022/12/23 05:23:09;;;;;;;21.80;12.05;;;;;;;1.15;nan;98649.28;5038599;28;20049;-72
2022/12/23 05:25:37;;;;;;;23.30;11.98;;;;;;;1.26;nan;98654.88;5019063;28;20055;-73
2022/12/23 05:28:02;;;;;;;22.65;12.65;;;;;;;1.16;nan;98653.63;5026810;28;20043;-63
2022/12/23 05:30:27;;;;;;;17.38;10.10;;;;;;;1.26;nan;98644.38;5036625;28;20040;-63
2022/12/23 05:32:53;;;;;;;19.10;11.07;;;;;;;1.32;nan;98639.66;5035764;28;20143;-63
2022/12/23 05:35:18;;;;;;;29.58;15.70;;;;;;;1.25;nan;98651.38;5018058;28;20155;-64
2022/12/23 05:37:42;;;;;;;22.95;14.02;;;;;;;1.10;nan;98654.78;5035590;28;20139;-64
2022/12/23 05:40:08;;;;;;;19.45;10.95;;;;;;;1.12;nan;98652.09;5035337;28;20101;-62
2022/12/23 05:42:32;;;;;;;20.42;12.02;;;;;;;1.25;nan;98635.63;5035561;28;20041;-63
2022/12/23 05:44:57;;;;;;;25.55;14.85;;;;;;;1.14;nan;98635.31;5017318;28;20059;-63
2022/12/23 05:47:21;;;;;;;22.65;13.00;;;;;;;1.24;nan;98630.50;5035404;28;20051;-62
2022/12/23 05:49:46;;;;;;;24.48;12.25;;;;;;;1.26;nan;98624.22;5030988;28;20091;-62
2022/12/23 05:52:10;;;;;;;18.77;11.48;;;;;;;1.20;nan;98628.94;5035105;28;20032;-63
2022/12/23 05:54:35;;;;;;;24.67;12.80;;;;;;;1.17;nan;98632.56;5039466;28;20044;-63
2022/12/23 05:57:00;;;;;;;20.83;11.43;;;;;;;1.26;nan;98623.34;5038278;28;20045;-63
2022/12/23 05:59:24;;;;;;;23.33;13.85;;;;;;;1.05;nan;98625.28;5035579;28;20843;-64
2022/12/23 06:01:49;;;;;;;24.38;13.52;;;;;;;1.07;nan;98632.16;5035332;28;20514;-63
2022/12/23 06:04:13;;;;;;;23.45;13.32;;;;;;;1.23;nan;98628.78;5017413;28;20066;-64
2022/12/23 06:06:38;;;;;;;17.92;10.20;;;;;;;1.13;nan;98633.63;5035136;28;20043;-64
2022/12/23 06:09:02;;;;;;;24.67;11.60;;;;;;;1.21;nan;98620.13;5034907;28;20540;-63
2022/12/23 06:11:27;;;;;;;19.10;11.32;;;;;;;1.08;nan;98626.00;5016784;28;20040;-63
2022/12/23 06:13:52;;;;;;;27.35;14.05;;;;;;;0.94;nan;98635.44;5015620;28;20518;-63
2022/12/23 06:16:16;;;;;;;20.00;9.85;;;;;;;1.09;nan;98632.09;5034884;28;20040;-63
2022/12/23 06:18:41;;;;;;;18.58;10.00;;;;;;;1.22;nan;98627.09;5035073;28;20052;-64
2022/12/23 06:21:05;;;;;;;20.35;11.48;;;;;;;1.08;nan;98625.13;5035112;28;20510;-63
2022/12/23 06:23:30;;;;;;;22.35;11.38;;;;;;;1.16;nan;98619.50;5034922;28;20047;-63
2022/12/23 06:26:02;;;;;;;20.65;11.10;;;;;;;1.26;nan;98618.09;5016622;28;20470;-63
2022/12/23 06:28:28;;;;;;;20.85;12.02;;;;;;;1.08;nan;98623.38;5033801;28;20047;-64
2022/12/23 06:30:53;;;;;;;23.23;12.00;;;;;;;1.20;nan;98623.69;5035276;28;20036;-63
2022/12/23 06:33:18;;;;;;;29.50;15.20;;;;;;;1.00;nan;98628.16;4999712;28;20754;-63
2022/12/23 06:35:42;;;;;;;16.08;8.68;;;;;;;1.33;nan;98630.03;5034554;28;20545;-64
2022/12/23 06:38:07;;;;;;;27.27;14.95;;;;;;;1.19;nan;98640.34;5034693;28;20037;-64
2022/12/23 06:40:31;;;;;;;19.65;12.00;;;;;;;1.15;nan;98636.16;5034361;28;20036;-65
2022/12/23 06:42:56;;;;;;;19.30;11.73;;;;;;;1.17;nan;98637.81;5033640;28;20105;-64
2022/12/23 06:45:21;;;;;;;21.88;11.60;;;;;;;1.28;nan;98642.50;5021596;28;20040;-66
2022/12/23 06:47:45;;;;;;;24.77;14.27;;;;;;;1.20;nan;98647.31;5034528;28;20129;-62
2022/12/23 06:50:10;;;;;;;26.95;13.35;;;;;;;1.20;nan;98644.69;5032834;28;20068;-64
2022/12/23 06:52:34;;;;;;;26.23;13.93;;;;;;;1.21;nan;98647.22;5013536;28;20029;-65
2022/12/23 06:54:59;;;;;;;23.05;12.73;;;;;;;1.36;nan;98629.84;5004757;28;20053;-65
2022/12/23 06:57:24;;;;;;;19.98;10.73;;;;;;;1.35;nan;98633.44;5014586;28;20036;-64
2022/12/23 06:59:49;;;;;;;25.23;13.07;;;;;;;1.36;nan;98632.47;5006456;28;20115;-64
2022/12/23 07:02:13;;;;;;;22.50;11.75;;;;;;;1.45;nan;98630.25;4999570;28;20036;-63
2022/12/23 07:04:38;;;;;;;23.05;11.27;;;;;;;1.50;nan;98630.00;5034442;28;20076;-64
2022/12/23 07:07:03;;;;;;;22.25;11.60;;;;;;;1.57;nan;98617.44;5034344;28;20080;-64
2022/12/23 07:09:27;;;;;;;16.08;8.07;;;;;;;1.52;nan;98622.06;5033124;28;20072;-64
2022/12/23 07:11:52;;;;;;;20.75;11.50;;;;;;;1.42;nan;98619.03;5034520;28;20043;-64
2022/12/23 07:14:17;;;;;;;22.10;11.30;;;;;;;1.40;nan;98616.50;5016060;28;20042;-64
2022/12/23 07:16:41;;;;;;;23.83;12.77;;;;;;;1.51;nan;98621.19;5016255;28;20498;-63
2022/12/23 07:19:06;;;;;;;22.35;12.27;;;;;;;1.38;nan;98626.22;5034146;28;20106;-63
2022/12/23 07:21:30;;;;;;;19.85;11.93;;;;;;;1.41;nan;98618.19;4979871;28;20106;-64
2022/12/23 07:23:55;;;;;;;21.65;10.68;;;;;;;1.33;nan;98632.66;5005440;28;20522;-63
2022/12/23 07:26:20;;;;;;;24.50;13.63;;;;;;;1.28;nan;98619.75;5033412;28;20375;-63
2022/12/23 07:28:47;;;;;;;14.20;7.85;;;;;;;1.56;nan;98623.59;5037838;28;20118;-64
2022/12/23 07:31:12;;;;;;;18.25;9.80;;;;;;;1.49;nan;98617.78;5037719;28;20041;-64
2022/12/23 07:33:37;;;;;;;18.67;9.27;;;;;;;1.61;nan;98606.66;5012036;28;20060;-65
2022/12/23 07:36:01;;;;;;;16.75;8.32;;;;;;;1.75;nan;98600.69;5032083;28;20541;-63
2022/12/23 07:38:26;;;;;;;17.55;10.88;;;;;;;1.64;nan;98608.28;5023633;28;20067;-63
2022/12/23 07:40:50;;;;;;;12.45;7.55;;;;;;;1.50;nan;98601.13;5036338;28;20047;-63
2022/12/23 07:43:15;;;;;;;22.00;12.63;;;;;;;1.40;nan;98595.50;5016504;28;20033;-64
2022/12/23 07:45:40;;;;;;;16.73;8.63;;;;;;;1.49;nan;98594.16;5026958;28;20449;-64
2022/12/23 07:48:05;;;;;;;18.25;10.18;;;;;;;1.45;nan;98585.59;5005493;28;20416;-63
2022/12/23 07:50:30;;;;;;;22.63;11.98;;;;;;;1.45;nan;98584.75;5037557;28;20442;-63
2022/12/23 07:52:56;;;;;;;22.92;13.48;;;;;;;1.36;nan;98586.06;5016233;28;20436;-64
2022/12/23 07:55:20;;;;;;;24.13;12.20;;;;;;;1.34;nan;98581.84;5032627;28;20473;-64
2022/12/23 07:57:49;;;;;;;21.85;12.05;;;;;;;1.17;nan;98592.31;5016309;28;20623;-63
2022/12/23 08:00:15;;;;;;;22.55;12.38;;;;;;;1.22;nan;98582.47;5029507;28;20075;-63
2022/12/23 08:02:40;;;;;;;24.45;13.13;;;;;;;1.29;nan;98597.81;5037204;28;20051;-63
2022/12/23 08:05:06;;;;;;;21.77;11.77;;;;;;;1.31;nan;98595.97;5037590;28;20538;-63
2022/12/23 08:07:30;;;;;;;30.75;15.75;;;;;;;1.37;nan;98589.53;5037287;28;20874;-64
2022/12/23 08:09:55;;;;;;;18.33;10.82;;;;;;;1.35;nan;98591.41;5010211;28;20464;-63
2022/12/23 08:12:19;;;;;;;22.45;12.23;;;;;;;1.31;nan;98595.13;5014262;28;20519;-63
2022/12/23 08:14:44;;;;;;;24.80;12.73;;;;;;;1.38;nan;98602.59;5012384;28;20037;-63
2022/12/23 08:17:09;;;;;;;34.80;17.83;;;;;;;1.31;nan;98601.22;4995493;28;20036;-63
2022/12/23 08:19:33;;;;;;;22.30;11.88;;;;;;;1.58;nan;98598.13;5037156;28;20514;-62
2022/12/23 08:21:58;;;;;;;22.45;10.40;;;;;;;1.50;nan;98595.84;5037108;28;20105;-64
2022/12/23 08:24:23;;;;;;;18.08;9.65;;;;;;;1.58;nan;98592.84;5036977;28;20078;-65
2022/12/23 08:26:47;;;;;;;21.95;11.23;;;;;;;1.59;nan;98584.03;5036912;28;20094;-65
2022/12/23 08:29:12;;;;;;;17.25;11.10;;;;;;;1.57;nan;98589.38;5037259;28;20051;-65
2022/12/23 08:31:37;;;;;;;22.23;12.88;;;;;;;1.56;nan;98590.31;5036882;28;20085;-65
2022/12/23 08:34:02;;;;;;;22.58;11.95;;;;;;;1.71;nan;98580.75;5037068;28;20052;-64
2022/12/23 08:36:32;;;;;;;20.35;11.23;;;;;;;1.67;nan;98587.13;5037811;28;20041;-65
2022/12/23 08:38:59;;;;;;;20.58;11.05;;;;;;;1.58;nan;98583.16;5035945;28;20040;-63
2022/12/23 08:41:30;;;;;;;20.60;10.98;;;;;;;1.51;nan;98579.19;5034706;28;20044;-65
2022/12/23 08:43:55;;;;;;;25.55;13.13;;;;;;;1.60;nan;98570.81;5008227;28;20044;-64
2022/12/23 08:46:19;;;;;;;22.25;13.65;;;;;;;1.49;nan;98567.91;5037229;28;20040;-66
2022/12/23 08:48:45;;;;;;;14.60;8.18;;;;;;;1.72;nan;98571.94;5016145;28;20048;-65
2022/12/23 08:51:14;;;;;;;19.83;11.55;;;;;;;1.66;nan;98578.38;5026334;28;20048;-64
2022/12/23 08:53:40;;;;;;;14.20;9.05;;;;;;;1.71;nan;98559.75;5038302;28;20565;-65
2022/12/23 08:56:11;;;;;;;20.35;11.68;;;;;;;1.65;nan;98555.66;5037225;28;20076;-65
2022/12/23 08:58:41;;;;;;;20.70;11.93;;;;;;;1.67;nan;98556.44;5007828;28;20037;-69
2022/12/23 09:01:08;;;;;;;26.40;11.48;;;;;;;1.78;nan;98559.34;5000523;28;20464;-62
2022/12/23 09:03:33;;;;;;;19.33;9.60;;;;;;;1.77;nan;98555.03;5034007;28;20049;-63
2022/12/23 09:05:58;;;;;;;25.67;12.93;;;;;;;1.60;nan;98552.44;5040645;28;20147;-63
2022/12/23 09:08:23;;;;;;;19.85;10.80;;;;;;;1.66;nan;98554.75;5039857;28;20127;-63
2022/12/23 09:10:48;;;;;;;26.17;14.02;;;;;;;1.44;nan;98548.91;5021883;28;20049;-63
2022/12/23 09:13:13;;;;;;;21.65;11.88;;;;;;;1.53;nan;98550.22;5023220;28;20043;-64
2022/12/23 09:15:42;;;;;;;21.75;11.82;;;;;;;1.57;nan;98549.13;5023775;28;20094;-64
2022/12/23 09:18:06;;;;;;;25.35;13.40;;;;;;;1.68;nan;98547.63;4999898;28;20556;-64
2022/12/23 09:20:31;;;;;;;21.85;11.68;;;;;;;1.80;nan;98544.34;5028799;28;20479;-63
2022/12/23 09:22:56;;;;;;;23.98;12.07;;;;;;;1.77;nan;98531.38;5035859;28;20099;-62
2022/12/23 09:25:21;;;;;;;23.77;12.60;;;;;;;1.77;nan;98512.97;5001278;28;20040;-63
2022/12/23 09:27:45;;;;;;;25.00;13.57;;;;;;;1.61;nan;98514.72;5003701;28;20040;-65
2022/12/23 09:30:10;;;;;;;23.88;12.75;;;;;;;1.51;nan;98515.28;5035720;28;20040;-63
2022/12/23 09:32:35;;;;;;;20.33;10.50;;;;;;;1.61;nan;98504.22;5037335;28;20040;-63
2022/12/23 09:34:59;;;;;;;27.13;15.60;;;;;;;1.55;nan;98508.97;5036310;28;20068;-64
2022/12/23 09:37:24;;;;;;;28.38;16.00;;;;;;;1.48;nan;98503.16;5037823;28;20036;-63
2022/12/23 09:39:48;;;;;;;23.27;13.88;;;;;;;1.48;nan;98484.78;5019186;28;20348;-64
2022/12/23 09:42:34;;;;;;;22.80;11.27;;;;;;;1.73;nan;98493.06;5036478;28;20037;-64
2022/12/23 09:45:27;;;;;;;24.88;14.63;;;;;;;1.65;nan;98502.28;5022110;28;20075;-63
2022/12/23 09:47:54;;;;;;;17.48;10.45;;;;;;;1.76;nan;98503.41;5037045;28;20048;-64
2022/12/23 09:50:25;;;;;;;24.40;12.95;;;;;;;1.73;nan;98500.94;5035017;28;20044;-63
2022/12/23 09:52:59;;;;;;;15.93;8.20;;;;;;;1.85;nan;98493.31;5018480;28;20102;-65
2022/12/23 09:55:34;;;;;;;21.23;11.73;;;;;;;1.77;nan;98489.34;5035542;28;20044;-63
2022/12/23 09:58:03;;;;;;;22.10;12.27;;;;;;;1.58;nan;98485.97;5035416;28;20048;-64
2022/12/23 10:00:38;;;;;;;21.17;11.43;;;;;;;1.62;nan;98484.91;5017380;28;20059;-67
2022/12/23 10:03:12;;;;;;;;;;;;;;;1.93;nan;98488.47;5035410;28;20091;-63
2022/12/23 10:05:53;;;;;;;20.40;12.25;;;;;;;1.91;nan;98485.97;5017184;28;20477;-63
2022/12/23 10:08:32;;;;;;;18.25;11.43;;;;;;;1.73;nan;98485.16;4985182;28;20067;-64
2022/12/23 10:11:05;;;;;;;12.68;6.55;;;;;;;2.07;nan;98480.69;5033309;28;20036;-64
2022/12/23 10:13:52;;;;;;;15.40;9.57;;;;;;;2.10;nan;98468.22;5034068;28;20048;-63
2022/12/23 10:16:21;;;;;;;28.05;12.55;;;;;;;1.86;nan;98471.38;5035513;28;20086;-63
2022/12/23 10:19:13;;;;;;;26.77;14.02;;;;;;;1.61;nan;98451.69;5035363;28;20076;-64
2022/12/23 10:21:51;;;;;;;19.45;10.48;;;;;;;1.66;nan;98449.66;5004927;28;20044;-64
2022/12/23 10:24:24;;;;;;;25.05;13.73;;;;;;;1.58;nan;98436.06;5000778;28;20048;-65
2022/12/23 10:26:59;;;;;;;22.63;13.05;;;;;;;1.51;nan;98445.22;5018129;28;20044;-64
2022/12/23 10:29:28;;;;;;;15.65;11.23;;;;;;;1.61;nan;98420.16;5017385;28;20490;-65
2022/12/23 10:32:14;;;;;;;21.70;11.23;;;;;;;1.71;nan;98431.84;5035031;28;20459;-65
2022/12/23 10:34:50;;;;;;;19.88;12.48;;;;;;;1.70;nan;98429.31;5017034;28;20051;-66
2022/12/23 10:37:47;;;;;;;18.08;11.68;;;;;;;1.72;nan;98438.81;5035087;28;20048;-64
2022/12/23 10:40:40;;;;;;;21.30;11.07;;;;;;;1.79;nan;98434.94;5016630;28;20044;-63
2022/12/23 10:43:14;;;;;;;15.23;9.15;;;;;;;1.83;nan;98436.44;5034767;28;20059;-65
2022/12/23 10:45:45;;;;;;;20.38;11.43;;;;;;;1.68;nan;98432.03;5035251;28;20045;-63
2022/12/23 10:48:37;;;;;;;19.67;11.57;;;;;;;1.72;nan;98441.44;5034050;28;20046;-64
2022/12/23 10:51:12;;;;;;;19.55;10.85;;;;;;;1.65;nan;98434.84;5022476;28;20032;-65
2022/12/23 10:53:48;;;;;;;18.73;10.30;;;;;;;1.75;nan;98436.03;5033424;28;20037;-64
2022/12/23 10:56:14;;;;;;;19.98;11.48;;;;;;;1.71;nan;98438.88;5035028;28;20049;-65
2022/12/23 10:58:45;;;;;;;12.68;7.38;;;;;;;1.82;nan;98433.88;5034837;28;20055;-64
2022/12/23 11:01:12;;;;;;;12.57;7.90;;;;;;;1.79;nan;98434.94;5035595;28;20107;-65
2022/12/23 11:03:41;;;;;;;20.15;14.35;;;;;;;1.62;nan;98440.25;5038832;28;20041;-66
2022/12/23 11:06:08;;;;;;;22.13;13.00;;;;;;;1.60;nan;98423.72;5026034;28;20079;-64
2022/12/23 11:08:35;;;;;;;19.95;11.52;;;;;;;1.61;nan;98430.66;5030631;28;20079;-64
2022/12/23 11:11:00;;;;;;;15.13;9.30;;;;;;;1.56;nan;98437.97;5038557;28;20044;-63
2022/12/23 11:13:34;;;;;;;24.23;14.48;;;;;;;1.43;nan;98427.28;5021138;28;20079;-65
2022/12/23 11:16:11;;;;;;;18.20;11.20;;;;;;;1.61;nan;98429.81;5020668;28;20050;-65
2022/12/23 11:18:35;;;;;;;17.35;10.63;;;;;;;1.57;nan;98413.41;5028206;28;20123;-63
2022/12/23 11:21:04;;;;;;;12.93;7.82;;;;;;;1.60;nan;98428.97;5033433;28;20558;-64
2022/12/23 11:23:31;;;;;;;18.42;10.40;;;;;;;1.64;nan;98430.50;5018354;28;20133;-64
2022/12/23 11:26:05;;;;;;;21.15;13.27;;;;;;;1.52;nan;98431.19;5018713;28;20036;-64
2022/12/23 11:28:31;;;;;;;15.30;10.70;;;;;;;1.64;nan;98433.13;5018435;28;20053;-65
2022/12/23 11:31:04;;;;;;;14.30;8.82;;;;;;;1.67;nan;98425.09;5018020;28;20474;-64
2022/12/23 11:33:34;;;;;;;20.13;11.63;;;;;;;1.52;nan;98435.56;5000588;28;20037;-66
2022/12/23 11:36:07;;;;;;;15.23;9.45;;;;;;;1.58;nan;98430.81;5019276;28;20056;-65
2022/12/23 11:38:46;;;;;;;19.25;11.68;;;;;;;1.64;nan;98434.91;5004649;28;20049;-65
2022/12/23 11:41:19;;;;;;;16.35;11.18;;;;;;;1.64;nan;98432.28;4986081;28;20048;-65
2022/12/23 11:44:07;;;;;;;14.90;9.27;;;;;;;1.68;nan;98421.53;5018185;28;20112;-64
2022/12/23 11:46:33;;;;;;;16.35;8.27;;;;;;;1.65;nan;98423.47;5007237;28;20061;-64
2022/12/23 11:49:05;;;;;;;19.60;11.95;;;;;;;1.66;nan;98420.78;5016591;28;20036;-64
2022/12/23 11:51:29;;;;;;;18.00;11.55;;;;;;;1.56;nan;98427.47;4989024;28;20096;-64
2022/12/23 11:53:59;;;;;;;14.50;9.57;;;;;;;1.71;nan;98433.63;4981054;28;20033;-65
2022/12/23 11:56:25;;;;;;;14.90;8.13;;;;;;;1.67;nan;98430.34;4991166;28;20141;-64
2022/12/23 11:59:00;;;;;;;16.25;10.18;;;;;;;1.66;nan;98426.03;5018028;28;20041;-65
2022/12/23 12:01:25;;;;;;;15.80;9.45;;;;;;;1.64;nan;98417.38;5023492;28;20041;-65
2022/12/23 12:03:55;;;;;;;11.80;7.47;;;;;;;1.60;nan;98413.22;5021749;28;20041;-63
2022/12/23 12:06:21;;;;;;;22.00;13.02;;;;;;;1.57;nan;98413.41;5000248;28;20049;-67
2022/12/23 12:08:52;;;;;;;10.70;6.72;;;;;;;1.67;nan;98409.34;5007544;28;20393;-65
2022/12/23 12:11:38;;;;;;;20.30;11.48;;;;;;;1.51;nan;98413.72;5018621;28;20062;-66
2022/12/23 12:14:06;;;;;;;22.05;15.98;;;;;;;1.38;nan;98402.19;4996073;28;20052;-65
2022/12/23 12:16:52;;;;;;;21.23;13.77;;;;;;;1.33;nan;98404.22;4999824;28;20048;-65
2022/12/23 12:19:29;;;;;;;19.70;11.13;;;;;;;1.61;nan;98399.16;5017245;28;20041;-64